Main page
METAR-TAF:

METAR-TAF

Airports :

Tri-County Regional Airport

Lone Rock, Wisconsin, United States

latitude: 43-12-43N, longitude: 090-10-53W, elevation: 718 ft

Current weather observation

The report was made 54 minutes ago, at 20:56 UTC
Wind 10 mph from the East
Temperature 54°F
Humidity 58%
Pressure 30.03 in. Hg
Visibility: 10 miles
Broken clouds at a height of 9500 ft

METAR: KLNR 012056Z AUTO 10009KT 10SM BKN095 12/04 A3003 RMK AO2 SLP167 T01220039 56018

Time: 16:50 (21:50 UTC)


TAF: missing

Weather observations and forecasts of more than 4000 airports (METAR and TAF reports).

The available stations are represented by yellow and red dots on the map.

Hover mouse over dot to see the name of the station.

Then click to see weather observations and forecasts.

To change the map : click on the green buttons with a black cross to zoom in, on the green button with a dash to zoom out, or on the green arrows for adjacent maps.


METAR-TAF: